createdAt,value
2023-05-02T00:00:00.019Z,0.70
2023-05-02T00:03:02.808Z,1.05
2023-05-02T00:06:05.210Z,0.77
2023-05-02T00:09:07.439Z,1.12
2023-05-02T00:12:09.627Z,0.75
2023-05-02T00:15:12.001Z,0.90
2023-05-02T00:18:14.221Z,1.00
2023-05-02T00:21:16.430Z,1.30
2023-05-02T00:24:19.133Z,1.12
2023-05-02T00:27:21.370Z,1.00
2023-05-02T00:30:23.663Z,1.27
2023-05-02T00:33:25.839Z,0.90
2023-05-02T00:36:28.201Z,0.98
2023-05-02T00:39:30.408Z,1.15
2023-05-02T00:42:35.989Z,1.58
2023-05-02T00:45:40.800Z,1.05
2023-05-02T00:48:43.946Z,1.40
2023-05-02T00:51:46.291Z,1.48
2023-05-02T00:54:48.789Z,1.20
2023-05-02T00:57:50.970Z,1.05
2023-05-02T01:01:12.249Z,1.15
2023-05-02T01:04:42.093Z,1.23
2023-05-02T01:08:29.422Z,1.00
2023-05-02T01:12:21.201Z,1.00
2023-05-02T01:15:23.765Z,1.30
2023-05-02T01:18:28.502Z,1.20
2023-05-02T01:21:32.183Z,1.42
2023-05-02T01:24:47.020Z,1.33
2023-05-02T01:28:02.280Z,1.70
2023-05-02T01:31:06.410Z,1.20
2023-05-02T01:34:10.440Z,1.12
2023-05-02T01:37:13.548Z,1.45
2023-05-02T01:40:18.340Z,1.20
2023-05-02T01:43:21.639Z,1.15
2023-05-02T01:46:26.457Z,1.40
2023-05-02T01:49:29.706Z,1.80
2023-05-02T01:52:32.047Z,1.08
2023-05-02T01:55:36.199Z,1.52
2023-05-02T01:58:39.193Z,1.40
2023-05-02T02:01:43.634Z,1.25
2023-05-02T02:04:47.834Z,1.50
2023-05-02T02:07:50.213Z,1.48
2023-05-02T02:10:57.864Z,1.40
2023-05-02T02:14:05.600Z,1.33
2023-05-02T02:17:18.986Z,1.30
2023-05-02T02:20:22.217Z,1.58
2023-05-02T02:23:27.131Z,1.37
2023-05-02T02:26:29.554Z,1.52
2023-05-02T02:29:31.855Z,1.42
2023-05-02T02:32:34.209Z,1.37
2023-05-02T02:35:43.034Z,1.27
2023-05-02T02:39:10.529Z,1.27
2023-05-02T02:42:40.709Z,1.25
2023-05-02T02:46:21.334Z,1.70
2023-05-02T02:49:49.907Z,1.30
2023-05-02T02:53:10.179Z,1.48
2023-05-02T02:56:15.983Z,1.30
2023-05-02T02:59:28.048Z,1.40
2023-05-02T03:02:32.814Z,1.20
2023-05-02T03:05:35.740Z,1.48
2023-05-02T03:08:41.382Z,1.23
2023-05-02T03:11:43.804Z,1.70
2023-05-02T03:14:46.209Z,1.35
2023-05-02T03:17:48.468Z,1.40
2023-05-02T03:20:50.701Z,1.60
2023-05-02T03:23:53.284Z,1.20
2023-05-02T03:26:56.496Z,1.70
2023-05-02T03:29:58.886Z,1.42
2023-05-02T03:33:02.302Z,1.25
2023-05-02T03:36:04.811Z,1.23
2023-05-02T03:39:07.078Z,1.23
2023-05-02T03:42:09.339Z,1.20
2023-05-02T03:45:11.583Z,1.50
2023-05-02T03:48:13.819Z,1.65
2023-05-02T03:51:16.329Z,1.40
2023-05-02T03:54:18.631Z,1.10
2023-05-02T03:57:21.377Z,1.55
2023-05-02T04:00:23.677Z,1.50
2023-05-02T04:03:27.282Z,1.60
2023-05-02T04:06:32.636Z,1.27
2023-05-02T04:09:34.863Z,1.85
2023-05-02T04:12:37.070Z,1.48
2023-05-02T04:15:39.345Z,1.70
2023-05-02T04:18:41.686Z,1.77
2023-05-02T04:21:44.299Z,1.70
2023-05-02T04:24:46.473Z,1.37
2023-05-02T04:27:48.703Z,1.27
2023-05-02T04:30:50.995Z,1.40
2023-05-02T04:33:53.276Z,1.70
2023-05-02T04:36:55.466Z,1.55
2023-05-02T04:39:57.754Z,1.60
2023-05-02T04:43:00.024Z,1.60
2023-05-02T04:46:02.301Z,1.37
2023-05-02T04:49:04.565Z,1.58
2023-05-02T04:52:06.778Z,1.40
2023-05-02T04:55:09.251Z,2.03
2023-05-02T04:58:11.509Z,1.85
2023-05-02T05:01:13.833Z,1.73
2023-05-02T05:04:16.255Z,1.48
2023-05-02T05:07:18.518Z,1.75
2023-05-02T05:10:20.769Z,1.60
2023-05-02T05:13:23.341Z,1.60
2023-05-02T05:16:25.633Z,1.70
2023-05-02T05:19:27.995Z,1.58
2023-05-02T05:22:30.255Z,1.60
2023-05-02T05:25:34.012Z,1.50
2023-05-02T05:28:36.468Z,1.70
2023-05-02T05:31:38.779Z,1.73
2023-05-02T05:34:40.975Z,1.42
2023-05-02T05:37:43.754Z,1.70
2023-05-02T05:40:49.973Z,1.73
2023-05-02T05:43:52.194Z,1.55
2023-05-02T05:46:54.758Z,1.60
2023-05-02T05:49:57.087Z,1.58
2023-05-02T05:52:59.348Z,1.70
2023-05-02T05:56:11.765Z,1.45
2023-05-02T05:59:14.127Z,1.58
2023-05-02T06:02:16.530Z,1.50
2023-05-02T06:05:18.743Z,1.62
2023-05-02T06:08:21.636Z,1.40
2023-05-02T06:11:24.608Z,1.87
2023-05-02T06:14:26.896Z,1.73
2023-05-02T06:17:29.164Z,2.10
2023-05-02T06:20:31.401Z,1.40
2023-05-02T06:23:33.708Z,1.50
2023-05-02T06:26:35.928Z,1.83
2023-05-02T06:29:38.122Z,1.60
2023-05-02T06:32:42.407Z,2.20
2023-05-02T06:35:51.501Z,1.90
2023-05-02T06:38:53.688Z,1.75
2023-05-02T06:41:58.772Z,1.60
2023-05-02T06:45:01.006Z,1.73
2023-05-02T06:48:03.489Z,2.00
2023-05-02T06:51:05.808Z,1.70
2023-05-02T06:54:08.830Z,1.55
2023-05-02T06:57:11.146Z,1.73
2023-05-02T07:00:14.268Z,1.55
2023-05-02T07:03:16.988Z,1.77
2023-05-02T07:06:19.238Z,1.70
2023-05-02T07:09:23.044Z,1.70
2023-05-02T07:12:26.382Z,1.70
2023-05-02T07:15:28.601Z,1.90
2023-05-02T07:18:30.779Z,1.80
2023-05-02T07:21:33.019Z,1.70
2023-05-02T07:24:35.309Z,1.85
2023-05-02T07:27:37.627Z,1.55
2023-05-02T07:30:39.874Z,1.85
2023-05-02T07:33:42.082Z,2.80
2023-05-02T07:36:44.258Z,1.45
2023-05-02T07:39:46.555Z,1.98
2023-05-02T07:42:49.037Z,1.75
2023-05-02T07:45:51.314Z,1.87
2023-05-02T07:48:54.357Z,1.87
2023-05-02T07:51:57.168Z,1.65
2023-05-02T07:54:59.357Z,1.45
2023-05-02T07:58:01.757Z,1.33
2023-05-02T08:01:04.490Z,1.48
2023-05-02T08:04:06.885Z,1.67
2023-05-02T08:07:09.180Z,1.70
2023-05-02T08:10:11.351Z,1.50
2023-05-02T08:13:13.783Z,2.10
2023-05-02T08:16:16.051Z,2.00
2023-05-02T08:19:18.247Z,1.55
2023-05-02T08:22:20.703Z,1.60
2023-05-02T08:25:22.885Z,1.60
2023-05-02T08:28:25.378Z,2.17
2023-05-02T08:31:27.621Z,1.60
2023-05-02T08:34:29.817Z,1.55
2023-05-02T08:37:32.352Z,1.50
2023-05-02T08:40:42.285Z,1.90
2023-05-02T08:43:46.312Z,1.67
2023-05-02T08:46:50.857Z,1.35
2023-05-02T08:49:53.868Z,1.80
2023-05-02T08:52:56.325Z,1.42
2023-05-02T08:56:00.392Z,1.80
2023-05-02T08:59:02.650Z,1.70
2023-05-02T09:02:15.920Z,1.80
2023-05-02T09:05:21.018Z,1.67
2023-05-02T09:08:24.401Z,1.77
2023-05-02T09:11:26.596Z,1.70
2023-05-02T09:14:28.758Z,1.77
2023-05-02T09:17:42.713Z,1.48
2023-05-02T09:20:45.023Z,1.60
2023-05-02T09:23:55.716Z,3.08
2023-05-02T09:27:05.241Z,1.50
2023-05-02T09:30:24.474Z,1.40
2023-05-02T09:33:27.587Z,1.55
2023-05-02T09:36:51.279Z,1.65
2023-05-02T09:40:06.458Z,1.65
2023-05-02T09:43:17.179Z,1.40
2023-05-02T09:46:19.382Z,1.40
2023-05-02T09:49:41.282Z,1.70
2023-05-02T09:53:01.210Z,1.45
2023-05-02T09:56:04.593Z,1.58
2023-05-02T09:59:16.834Z,1.67
2023-05-02T10:02:19.531Z,1.70
2023-05-02T10:05:21.851Z,1.60
2023-05-02T10:08:27.456Z,1.42
2023-05-02T10:11:31.167Z,1.55
2023-05-02T10:14:37.868Z,1.45
2023-05-02T10:17:43.695Z,1.20
2023-05-02T10:20:57.319Z,1.52
2023-05-02T10:24:03.275Z,1.52
2023-05-02T10:27:05.843Z,1.60
2023-05-02T10:30:08.790Z,1.42
2023-05-02T10:33:14.077Z,1.40
2023-05-02T10:36:21.244Z,1.60
2023-05-02T10:39:24.936Z,1.40
2023-05-02T10:42:27.665Z,1.30
2023-05-02T10:45:37.260Z,1.67
2023-05-02T10:48:39.730Z,1.65
2023-05-02T10:51:43.431Z,1.50
2023-05-02T10:54:46.280Z,1.45
2023-05-02T10:57:58.286Z,1.90
2023-05-02T11:01:26.369Z,1.70
2023-05-02T11:05:05.030Z,1.62
2023-05-02T11:08:16.833Z,1.95
2023-05-02T11:11:38.319Z,1.60
2023-05-02T11:14:40.565Z,1.42
2023-05-02T11:18:07.711Z,2.10
2023-05-02T11:21:28.772Z,1.50
2023-05-02T11:27:46.408Z,1.60
2023-05-02T11:30:50.989Z,1.50
2023-05-02T11:33:57.069Z,1.60
2023-05-02T11:36:59.252Z,1.33
2023-05-02T11:40:14.425Z,1.23
2023-05-02T11:43:19.249Z,1.42
2023-05-02T11:46:21.670Z,1.12
2023-05-02T11:49:24.106Z,1.27
2023-05-02T11:52:26.565Z,1.40
2023-05-02T11:55:28.781Z,1.30
2023-05-02T11:58:33.565Z,1.35
2023-05-02T12:01:36.601Z,1.42
2023-05-02T12:04:45.055Z,1.10
2023-05-02T12:07:49.399Z,1.37
2023-05-02T12:10:53.120Z,1.30
2023-05-02T12:13:55.475Z,1.10
2023-05-02T12:16:58.613Z,1.30
2023-05-02T12:20:03.508Z,1.60
2023-05-02T12:23:10.221Z,1.05
2023-05-02T12:26:29.298Z,1.30
2023-05-02T12:29:45.248Z,1.58
2023-05-02T12:32:57.406Z,1.40
2023-05-02T12:36:07.116Z,1.40
2023-05-02T12:39:09.797Z,1.10
2023-05-02T12:42:15.703Z,1.20
2023-05-02T12:45:18.584Z,1.25
2023-05-02T12:48:22.426Z,1.30
2023-05-02T12:51:24.790Z,1.27
2023-05-02T12:54:26.966Z,1.33
2023-05-02T12:57:30.180Z,1.30
2023-05-02T13:00:34.759Z,1.30
2023-05-02T13:03:37.534Z,1.20
2023-05-02T13:06:40.719Z,1.10
2023-05-02T13:09:42.900Z,1.20
2023-05-02T13:12:47.046Z,1.20
2023-05-02T13:15:49.470Z,1.60
2023-05-02T13:18:51.814Z,1.10
2023-05-02T13:21:54.110Z,1.20
2023-05-02T13:24:56.423Z,1.08
2023-05-02T13:27:58.773Z,0.95
2023-05-02T13:31:01.198Z,1.02
2023-05-02T13:34:04.514Z,0.98
2023-05-02T13:37:06.678Z,1.33
2023-05-02T13:40:09.334Z,1.05
2023-05-02T13:43:11.536Z,1.33
2023-05-02T13:46:13.887Z,0.88
2023-05-02T13:49:16.074Z,1.23
2023-05-02T13:52:18.371Z,1.20
2023-05-02T13:55:20.622Z,1.55
2023-05-02T13:58:22.818Z,1.30
2023-05-02T14:01:28.220Z,1.23
2023-05-02T14:04:30.596Z,1.30
2023-05-02T14:07:32.772Z,1.17
2023-05-02T14:10:36.441Z,1.20
2023-05-02T14:13:38.647Z,1.30
2023-05-02T14:16:41.113Z,1.10
2023-05-02T14:19:43.798Z,1.12
2023-05-02T14:22:46.002Z,1.58
2023-05-02T14:25:48.175Z,1.15
2023-05-02T14:28:50.524Z,0.95
2023-05-02T14:31:52.871Z,1.25
2023-05-02T14:34:55.164Z,1.27
2023-05-02T14:37:57.664Z,1.70
2023-05-02T14:41:00.127Z,1.40
2023-05-02T14:44:02.533Z,1.33
2023-05-02T14:47:04.812Z,1.42
2023-05-02T14:50:07.660Z,1.10
2023-05-02T14:53:09.999Z,1.30
2023-05-02T14:56:14.283Z,1.30
2023-05-02T14:59:16.528Z,1.30
2023-05-02T15:02:18.998Z,1.92
2023-05-02T15:05:21.429Z,1.20
2023-05-02T15:08:23.640Z,1.52
2023-05-02T15:11:25.897Z,1.45
2023-05-02T15:14:28.150Z,1.62
2023-05-02T15:17:30.340Z,1.30
2023-05-02T15:20:32.610Z,1.48
2023-05-02T15:23:34.867Z,1.50
2023-05-02T15:26:37.148Z,1.40
2023-05-02T15:29:39.481Z,1.20
2023-05-02T15:32:41.741Z,1.30
2023-05-02T15:35:55.037Z,1.58
2023-05-02T15:38:57.489Z,1.52
2023-05-02T15:42:03.824Z,1.45
2023-05-02T15:45:06.659Z,2.08
2023-05-02T15:48:08.934Z,1.50
2023-05-02T15:51:11.433Z,1.42
2023-05-02T15:54:13.648Z,2.17
2023-05-02T15:57:16.159Z,1.58
2023-05-02T16:00:18.506Z,1.50
2023-05-02T16:03:20.913Z,1.50
2023-05-02T16:06:23.360Z,1.17
2023-05-02T16:09:25.657Z,1.60
2023-05-02T16:12:28.057Z,1.50
2023-05-02T16:15:30.574Z,1.40
2023-05-02T16:18:33.666Z,1.27
2023-05-02T16:21:36.289Z,1.60
2023-05-02T16:24:38.718Z,1.30
2023-05-02T16:27:41.018Z,1.58
2023-05-02T16:30:43.230Z,1.35
2023-05-02T16:33:45.702Z,1.25
2023-05-02T16:36:48.724Z,1.40
2023-05-02T16:39:50.934Z,1.15
2023-05-02T16:42:53.398Z,1.50
2023-05-02T16:46:03.377Z,1.50
2023-05-02T16:49:06.826Z,1.50
2023-05-02T16:52:09.095Z,1.50
2023-05-02T16:55:11.372Z,1.20
2023-05-02T16:58:14.027Z,1.30
2023-05-02T17:01:16.440Z,1.48
2023-05-02T17:04:18.731Z,1.50
2023-05-02T17:07:20.922Z,1.60
2023-05-02T17:10:24.088Z,1.50
2023-05-02T17:13:26.306Z,1.35
2023-05-02T17:16:28.541Z,1.42
2023-05-02T17:19:31.336Z,1.50
2023-05-02T17:22:35.644Z,2.30
2023-05-02T17:25:38.389Z,3.65
2023-05-02T17:28:44.549Z,3.22
2023-05-02T17:31:46.905Z,2.40
2023-05-02T17:34:49.471Z,1.92
2023-05-02T17:37:51.717Z,1.70
2023-05-02T17:40:53.983Z,1.52
2023-05-02T17:43:56.473Z,1.45
2023-05-02T17:46:58.782Z,1.58
2023-05-02T17:50:04.749Z,1.30
2023-05-02T17:53:08.010Z,1.33
2023-05-02T17:56:10.770Z,1.60
2023-05-02T17:59:13.721Z,2.00
2023-05-02T18:02:18.276Z,2.05
2023-05-02T18:05:20.566Z,2.58
2023-05-02T18:08:23.151Z,3.47
2023-05-02T18:11:27.318Z,3.37
2023-05-02T18:14:29.694Z,2.67
2023-05-02T18:17:32.282Z,2.22
2023-05-02T18:20:39.581Z,2.47
2023-05-02T18:23:41.800Z,2.10
2023-05-02T18:26:44.065Z,1.87
2023-05-02T18:29:46.612Z,1.87
2023-05-02T18:32:48.928Z,2.12
2023-05-02T18:35:51.301Z,2.10
2023-05-02T18:38:54.661Z,2.20
2023-05-02T18:41:56.830Z,2.60
2023-05-02T18:45:04.599Z,2.20
2023-05-02T18:48:07.144Z,1.92
2023-05-02T18:51:09.638Z,2.12
2023-05-02T18:54:11.998Z,2.22
2023-05-02T18:57:14.759Z,2.00
2023-05-02T19:00:19.230Z,2.17
2023-05-02T19:03:22.164Z,2.05
2023-05-02T19:06:24.709Z,1.83
2023-05-02T19:09:27.125Z,2.00
2023-05-02T19:12:30.332Z,2.20
2023-05-02T19:15:34.008Z,2.20
2023-05-02T19:18:36.511Z,2.12
2023-05-02T19:21:40.329Z,2.40
2023-05-02T19:24:42.555Z,2.83
2023-05-02T19:27:47.640Z,1.98
2023-05-02T19:30:50.066Z,2.25
2023-05-02T19:33:56.427Z,1.98
2023-05-02T19:36:58.892Z,2.40
2023-05-02T19:40:01.863Z,2.40
2023-05-02T19:43:04.290Z,3.03
2023-05-02T19:46:06.963Z,3.12
2023-05-02T19:49:09.564Z,2.42
2023-05-02T19:52:12.062Z,2.87
2023-05-02T19:55:16.144Z,2.53
2023-05-02T19:58:18.372Z,2.35
2023-05-02T20:01:21.317Z,2.97
2023-05-02T20:04:25.887Z,2.50
2023-05-02T20:07:28.582Z,2.42
2023-05-02T20:10:32.108Z,2.50
2023-05-02T20:13:34.310Z,2.30
2023-05-02T20:16:36.791Z,2.33
2023-05-02T20:19:39.459Z,2.37
2023-05-02T20:22:41.690Z,2.50
2023-05-02T20:25:44.056Z,2.35
2023-05-02T20:28:46.327Z,2.40
2023-05-02T20:31:48.604Z,2.08
2023-05-02T20:34:50.953Z,2.10
2023-05-02T20:37:53.992Z,2.62
2023-05-02T20:40:57.573Z,2.33
2023-05-02T20:44:01.306Z,2.30
2023-05-02T20:47:06.904Z,3.35
2023-05-02T20:50:09.493Z,2.47
2023-05-02T20:53:11.689Z,2.42
2023-05-02T20:56:13.878Z,2.33
2023-05-02T20:59:16.191Z,2.33
2023-05-02T21:02:18.362Z,2.30
2023-05-02T21:05:20.951Z,2.30
2023-05-02T21:08:23.374Z,2.70
2023-05-02T21:11:25.562Z,2.50
2023-05-02T21:14:27.840Z,2.00
2023-05-02T21:17:30.120Z,2.80
2023-05-02T21:20:33.040Z,2.42
2023-05-02T21:23:35.486Z,2.47
2023-05-02T21:26:37.720Z,2.45
2023-05-02T21:29:39.937Z,2.60
2023-05-02T21:32:42.486Z,2.90
2023-05-02T21:35:44.845Z,3.15
2023-05-02T21:38:47.050Z,2.70
2023-05-02T21:41:49.303Z,2.80
2023-05-02T21:44:51.535Z,2.40
2023-05-02T21:47:54.285Z,2.37
2023-05-02T21:50:56.542Z,2.17
2023-05-02T21:53:58.744Z,2.40
2023-05-02T21:57:02.749Z,2.25
2023-05-02T22:00:06.196Z,1.77
2023-05-02T22:03:11.714Z,2.40
2023-05-02T22:06:14.441Z,2.03
2023-05-02T22:09:17.604Z,1.80
2023-05-02T22:12:26.793Z,2.20
2023-05-02T22:15:29.717Z,2.17
2023-05-02T22:18:31.990Z,1.98
2023-05-02T22:21:34.360Z,2.20
2023-05-02T22:24:36.576Z,1.87
2023-05-02T22:27:38.808Z,2.15
2023-05-02T22:30:44.538Z,2.05
2023-05-02T22:33:49.883Z,2.45
2023-05-02T22:36:52.172Z,2.42
2023-05-02T22:39:54.362Z,2.33
2023-05-02T22:42:56.601Z,1.90
2023-05-02T22:46:02.557Z,1.92
2023-05-02T22:49:06.280Z,2.30
2023-05-02T22:52:08.635Z,2.12
2023-05-02T22:55:10.880Z,2.10
2023-05-02T22:58:13.087Z,2.17
2023-05-02T23:01:15.577Z,2.10
2023-05-02T23:04:17.809Z,2.17
2023-05-02T23:07:20.045Z,2.50
2023-05-02T23:10:22.272Z,2.30
2023-05-02T23:13:24.477Z,2.47
2023-05-02T23:16:26.913Z,2.60
2023-05-02T23:19:29.656Z,2.05
2023-05-02T23:22:34.196Z,2.58
2023-05-02T23:25:36.714Z,2.65
2023-05-02T23:28:39.529Z,2.10
2023-05-02T23:31:41.819Z,2.10
2023-05-02T23:34:44.297Z,2.15
2023-05-02T23:37:46.543Z,1.75
2023-05-02T23:40:48.875Z,1.83
2023-05-02T23:43:51.072Z,1.87
2023-05-02T23:46:53.367Z,1.87
2023-05-02T23:49:55.652Z,2.10
2023-05-02T23:52:57.888Z,2.30
2023-05-02T23:56:00.105Z,2.10
2023-05-02T23:59:02.372Z,2.08
